Time;durP1;ratioP1;P1;durP2;ratioP2;P2;SDS_P1;SDS_P2;PMS_P1;PMS_P2;Temp;Humidity;BMP_temperature;BMP_pressure;BME280_temperature;BME280_humidity;BME280_pressure;Samples;Min_cycle;Max_cycle;Signal;HPM_P1;HPM_P2
2022/01/29 00:01:10;;;;;;;36.25;18.38;;;;;;;5.13;81.29;101004.88;4949204;28;20042;-73
2022/01/29 00:03:36;;;;;;;35.08;18.88;;;;;;;5.15;81.58;100990.06;4967689;28;20518;-73
2022/01/29 00:06:01;;;;;;;32.15;17.67;;;;;;;5.13;81.16;100979.59;4965970;28;20178;-72
2022/01/29 00:08:27;;;;;;;37.42;19.58;;;;;;;5.15;81.01;100985.69;4966567;28;21214;-72
2022/01/29 00:10:56;;;;;;;39.13;19.38;;;;;;;5.13;81.51;100978.72;4965928;28;20042;-72
2022/01/29 00:13:21;;;;;;;35.72;19.52;;;;;;;5.17;80.74;100977.84;4967514;28;20039;-72
2022/01/29 00:15:47;;;;;;;37.33;19.27;;;;;;;5.20;80.89;100975.19;4946559;28;20035;-73
2022/01/29 00:18:12;;;;;;;32.20;19.88;;;;;;;5.21;80.87;100979.53;4951163;28;20070;-74
2022/01/29 00:20:38;;;;;;;41.47;20.98;;;;;;;5.22;80.54;100975.16;4966736;28;20062;-72
2022/01/29 00:23:03;;;;;;;33.67;18.98;;;;;;;5.22;80.53;100981.28;4966662;28;20133;-74
2022/01/29 00:25:28;;;;;;;35.83;19.70;;;;;;;5.23;80.99;100976.91;4965935;28;20119;-74
2022/01/29 00:27:56;;;;;;;33.97;19.05;;;;;;;5.24;80.60;100968.19;4968079;28;20516;-74
2022/01/29 00:30:29;;;;;;;36.60;20.52;;;;;;;5.24;80.81;100958.63;4951982;28;20497;-72
2022/01/29 00:32:54;;;;;;;36.65;19.38;;;;;;;5.23;80.78;100943.78;4947464;28;20580;-72
2022/01/29 00:35:19;;;;;;;38.03;20.42;;;;;;;5.21;80.37;100929.88;4950301;28;20146;-72
2022/01/29 00:37:45;;;;;;;36.80;20.00;;;;;;;5.19;80.19;100926.38;4965688;28;20042;-72
2022/01/29 00:40:11;;;;;;;41.13;22.63;;;;;;;5.13;81.32;100927.31;4966433;28;20125;-73
2022/01/29 00:42:37;;;;;;;37.05;21.65;;;;;;;5.13;80.91;100929.06;4949522;28;20122;-73
2022/01/29 00:45:02;;;;;;;32.95;19.83;;;;;;;5.14;80.96;100926.47;4958305;28;20122;-71
2022/01/29 00:47:28;;;;;;;35.72;20.08;;;;;;;5.16;80.92;100913.34;4966479;28;20126;-71
2022/01/29 00:49:53;;;;;;;38.47;19.38;;;;;;;5.18;80.76;100929.03;4958680;28;20047;-71
2022/01/29 00:52:19;;;;;;;39.03;21.38;;;;;;;5.20;81.17;100917.69;4962094;28;20050;-72
2022/01/29 00:54:45;;;;;;;34.70;19.25;;;;;;;5.19;80.96;100921.16;4958481;28;20046;-72
2022/01/29 00:57:10;;;;;;;35.15;20.10;;;;;;;5.23;80.81;100917.66;4965296;28;20093;-73
2022/01/29 00:59:36;;;;;;;40.58;21.13;;;;;;;5.23;80.41;100915.03;4965850;28;20130;-73
2022/01/29 01:02:02;;;;;;;39.97;21.20;;;;;;;5.23;80.69;100914.19;4965300;28;20042;-73
2022/01/29 01:04:28;;;;;;;36.15;22.52;;;;;;;5.22;80.54;100915.03;4964411;28;20571;-72
2022/01/29 01:06:53;;;;;;;37.72;22.00;;;;;;;5.22;80.24;100915.94;4964906;28;20125;-73
2022/01/29 01:09:19;;;;;;;36.38;18.83;;;;;;;5.25;80.81;100921.13;4965017;28;20089;-73
2022/01/29 01:11:44;;;;;;;36.90;20.75;;;;;;;5.28;80.48;100920.22;4965216;28;20090;-72
2022/01/29 01:14:09;;;;;;;32.15;20.70;;;;;;;5.29;80.85;100911.50;4964212;28;20397;-72
2022/01/29 01:16:34;;;;;;;37.60;21.08;;;;;;;5.27;80.76;100919.38;4964910;28;20452;-72
2022/01/29 01:19:01;;;;;;;41.22;21.83;;;;;;;5.29;80.85;100906.25;4967809;28;20660;-72
2022/01/29 01:21:26;;;;;;;36.20;21.90;;;;;;;5.28;80.48;100896.69;4964475;28;20101;-72
2022/01/29 01:23:52;;;;;;;39.05;22.42;;;;;;;5.30;80.97;100885.34;4964257;28;20058;-73
2022/01/29 01:26:18;;;;;;;47.20;24.73;;;;;;;5.29;80.81;100882.72;4963991;28;20385;-73
2022/01/29 01:28:43;;;;;;;49.90;23.25;;;;;;;5.24;81.14;100879.28;4965149;28;20049;-73
2022/01/29 01:31:08;;;;;;;36.13;21.73;;;;;;;5.24;81.35;100871.44;4965560;28;20035;-73
2022/01/29 01:33:34;;;;;;;41.08;23.63;;;;;;;5.26;81.11;100869.69;4966052;28;20042;-73
2022/01/29 01:36:03;;;;;;;40.97;25.27;;;;;;;5.28;81.35;100863.56;4963856;28;20031;-73
2022/01/29 01:41:07;;;;;;;46.47;25.65;;;;;;;5.22;81.61;100878.44;4964896;28;20043;-73
2022/01/29 01:43:32;;;;;;;54.83;26.33;;;;;;;5.23;81.34;100875.81;4947111;28;20069;-73
2022/01/29 01:45:58;;;;;;;43.72;25.13;;;;;;;5.24;81.27;100871.44;4965088;28;20046;-73
2022/01/29 01:48:23;;;;;;;41.28;22.92;;;;;;;5.23;81.26;100867.97;4965140;28;20058;-73
2022/01/29 01:50:49;;;;;;;42.20;26.33;;;;;;;5.23;81.65;100869.72;4964174;28;20057;-73
2022/01/29 01:53:15;;;;;;;37.63;22.65;;;;;;;5.25;81.09;100876.69;4967559;28;20125;-73
2022/01/29 01:55:40;;;;;;;45.30;24.88;;;;;;;5.27;81.31;100871.44;4967941;28;20038;-72
2022/01/29 01:58:06;;;;;;;37.35;23.30;;;;;;;5.29;81.37;100880.13;4968506;28;20053;-72
2022/01/29 02:00:31;;;;;;;40.08;23.23;;;;;;;5.31;81.27;100886.19;4949029;28;20053;-72
2022/01/29 02:02:57;;;;;;;45.30;23.67;;;;;;;5.31;81.12;100875.75;4941969;28;20508;-73
2022/01/29 02:05:23;;;;;;;36.95;22.48;;;;;;;5.29;80.63;100864.44;4967276;28;21982;-71
2022/01/29 02:07:49;;;;;;;32.10;20.98;;;;;;;5.59;83.00;100847.56;4967216;28;20035;-65
2022/01/29 02:10:16;;;;;;;38.90;20.88;;;;;;;5.90;79.80;100829.72;4972287;28;20057;-67
2022/01/29 02:12:45;;;;;;;43.05;25.23;;;;;;;5.80;79.02;100815.00;4955783;28;20098;-74
2022/01/29 02:15:11;;;;;;;42.03;22.80;;;;;;;5.64;79.40;100822.22;4971777;28;20046;-73
2022/01/29 02:17:36;;;;;;;44.70;23.85;;;;;;;5.52;80.16;100804.91;4985343;28;20038;-72
2022/01/29 02:20:02;;;;;;;45.00;24.27;;;;;;;5.45;80.97;100805.00;4992714;28;20041;-72
2022/01/29 02:22:27;;;;;;;41.85;22.35;;;;;;;5.40;81.61;100804.19;4992316;28;20039;-73
2022/01/29 02:24:52;;;;;;;40.22;23.67;;;;;;;5.30;81.95;100808.66;4991649;28;20034;-72
2022/01/29 02:27:18;;;;;;;36.78;21.30;;;;;;;5.24;82.60;100801.75;4992435;28;20058;-73
2022/01/29 02:29:44;;;;;;;33.53;21.42;;;;;;;5.26;82.84;100805.19;4975934;28;20043;-73
2022/01/29 02:32:09;;;;;;;40.55;23.60;;;;;;;5.27;83.00;100799.09;4972957;28;20027;-73
2022/01/29 02:34:35;;;;;;;35.33;20.63;;;;;;;5.24;83.23;100796.53;4972794;28;20043;-72
2022/01/29 02:37:01;;;;;;;33.88;20.42;;;;;;;5.22;84.03;100793.06;4973255;28;20511;-74
2022/01/29 02:39:26;;;;;;;35.00;19.15;;;;;;;5.23;83.90;100794.78;4973390;28;20941;-74
2022/01/29 02:41:51;;;;;;;32.85;20.92;;;;;;;5.22;84.24;100792.16;4957351;28;20046;-74
2022/01/29 02:44:21;;;;;;;36.42;20.05;;;;;;;5.20;84.32;100792.22;4972888;28;20408;-74
2022/01/29 02:49:17;;;;;;;32.47;19.95;;;;;;;5.16;84.60;100790.50;4972348;28;20406;-74
2022/01/29 02:51:48;;;;;;;36.05;21.27;;;;;;;5.13;84.88;100787.94;4970874;28;20133;-73
2022/01/29 02:54:14;;;;;;;36.75;21.40;;;;;;;5.12;85.41;100792.28;4971199;28;20049;-71
2022/01/29 02:56:39;;;;;;;36.85;20.80;;;;;;;5.10;85.72;100785.34;4972386;28;20035;-74
2022/01/29 02:59:05;;;;;;;37.38;20.25;;;;;;;5.08;85.63;100776.66;4972803;28;20035;-73
2022/01/29 03:01:30;;;;;;;30.73;18.40;;;;;;;5.03;86.10;100776.69;4972092;28;20852;-72
2022/01/29 03:03:56;;;;;;;30.20;17.92;;;;;;;5.03;86.30;100773.22;4970956;28;20050;-72
2022/01/29 03:06:21;;;;;;;38.40;22.30;;;;;;;5.02;86.33;100777.59;4971801;28;20041;-74
2022/01/29 03:08:46;;;;;;;36.72;20.27;;;;;;;5.02;86.55;100780.22;4972012;28;20038;-74
2022/01/29 03:11:12;;;;;;;33.40;17.25;;;;;;;5.00;86.42;100781.09;4972163;28;20579;-73
2022/01/29 03:13:38;;;;;;;28.13;17.17;;;;;;;5.01;86.21;100775.00;4972147;28;20118;-73
2022/01/29 03:16:04;;;;;;;24.58;16.70;;;;;;;5.01;86.63;100770.63;4971708;28;20115;-73
2022/01/29 03:18:29;;;;;;;32.75;18.98;;;;;;;4.98;86.49;100761.97;4954461;28;20042;-72
2022/01/29 03:20:54;;;;;;;28.05;17.27;;;;;;;5.00;87.00;100762.81;4971657;28;20099;-72
2022/01/29 03:23:20;;;;;;;30.88;16.65;;;;;;;4.91;87.83;100762.00;4971485;28;20043;-73
2022/01/29 03:25:45;;;;;;;30.75;18.23;;;;;;;4.91;87.89;100750.69;4970910;28;20054;-73
2022/01/29 03:28:10;;;;;;;28.27;16.77;;;;;;;4.83;88.71;100749.94;4971601;28;20081;-72
2022/01/29 03:30:36;;;;;;;27.83;17.05;;;;;;;4.80;88.92;100742.97;4971842;28;20058;-73
2022/01/29 03:33:01;;;;;;;29.52;17.50;;;;;;;4.81;88.54;100738.63;4971027;28;20039;-73
2022/01/29 03:35:26;;;;;;;26.70;15.75;;;;;;;4.78;88.68;100730.81;4970759;28;20030;-73
2022/01/29 03:37:52;;;;;;;33.35;19.17;;;;;;;4.75;88.94;100739.56;4971304;28;20070;-73
2022/01/29 03:40:17;;;;;;;30.90;17.23;;;;;;;4.73;89.01;100734.34;4971210;28;20062;-72
2022/01/29 03:42:47;;;;;;;27.13;16.67;;;;;;;4.76;89.12;100729.97;4970748;28;20102;-72
2022/01/29 03:45:15;;;;;;;26.45;16.10;;;;;;;4.78;89.27;100721.22;4968492;28;20492;-72
2022/01/29 03:47:40;;;;;;;31.90;18.85;;;;;;;4.78;89.11;100726.47;4971288;28;20046;-72
2022/01/29 03:50:06;;;;;;;32.03;17.42;;;;;;;4.81;88.92;100731.63;4971635;28;20049;-72
2022/01/29 03:52:31;;;;;;;24.48;15.77;;;;;;;4.83;88.73;100722.03;4970640;28;20031;-71
2022/01/29 03:54:56;;;;;;;21.70;14.00;;;;;;;4.85;89.14;100724.63;4952885;28;20392;-72
2022/01/29 03:57:22;;;;;;;30.05;17.98;;;;;;;4.84;88.81;100721.16;4970790;28;20093;-72
2022/01/29 03:59:47;;;;;;;24.20;15.70;;;;;;;4.83;89.12;100719.44;4970913;28;20404;-72
2022/01/29 04:02:12;;;;;;;20.58;13.65;;;;;;;4.85;89.41;100729.84;4970403;28;20042;-72
2022/01/29 04:04:37;;;;;;;21.02;13.55;;;;;;;4.84;89.21;100725.50;4970235;28;20130;-72
2022/01/29 04:07:10;;;;;;;22.30;13.55;;;;;;;4.86;89.26;100727.22;4971247;28;20034;-72
2022/01/29 04:09:35;;;;;;;23.63;13.60;;;;;;;4.89;88.95;100713.28;4954561;28;20113;-72
2022/01/29 04:12:01;;;;;;;22.02;13.45;;;;;;;4.92;89.15;100706.28;4970551;28;20459;-72
2022/01/29 04:14:32;;;;;;;20.38;14.07;;;;;;;4.93;89.52;100705.38;4952959;28;20039;-72
2022/01/29 04:16:58;;;;;;;17.27;11.85;;;;;;;4.95;89.46;100710.59;4970604;28;20121;-72
2022/01/29 04:19:23;;;;;;;25.02;14.38;;;;;;;4.94;90.65;100708.84;4970668;28;20496;-72
2022/01/29 04:21:48;;;;;;;19.92;12.38;;;;;;;4.92;90.95;100705.38;4972888;28;20039;-71
2022/01/29 04:24:14;;;;;;;19.38;13.00;;;;;;;4.92;90.57;100701.06;4969618;28;20030;-72
2022/01/29 04:26:39;;;;;;;14.65;9.55;;;;;;;4.89;90.11;100693.22;4970231;28;20094;-71
2022/01/29 04:29:08;;;;;;;14.82;9.98;;;;;;;4.91;90.31;100690.59;4953627;28;20089;-74
2022/01/29 04:32:24;;;;;;;17.60;9.25;;;;;;;4.90;90.37;100696.72;4970507;28;20143;-73
2022/01/29 04:34:26;;;;;;;12.50;7.95;;;;;;;4.90;90.12;100699.34;4963956;28;20038;-73
2022/01/29 04:36:52;;;;;;;12.63;8.98;;;;;;;4.91;90.25;100699.31;4970054;28;20094;-73
2022/01/29 04:39:17;;;;;;;15.15;8.40;;;;;;;4.90;89.50;100692.34;4970310;28;20730;-72
2022/01/29 04:41:43;;;;;;;15.27;10.40;;;;;;;4.93;89.80;100699.28;4970216;28;20121;-73
2022/01/29 04:44:08;;;;;;;11.57;7.47;;;;;;;4.91;89.65;100688.00;4969392;28;20042;-74
2022/01/29 04:46:33;;;;;;;14.32;8.18;;;;;;;4.89;89.69;100680.16;4970174;28;20046;-72
2022/01/29 04:48:59;;;;;;;12.02;8.45;;;;;;;4.90;89.73;100679.28;4970324;28;20522;-73
2022/01/29 04:51:24;;;;;;;10.52;6.75;;;;;;;4.88;89.93;100683.66;4970022;28;20027;-72
2022/01/29 04:53:49;;;;;;;11.15;7.20;;;;;;;4.91;90.10;100690.59;4970029;28;20049;-73
2022/01/29 04:56:15;;;;;;;13.20;8.20;;;;;;;4.93;89.78;100674.03;4969014;28;20098;-73
2022/01/29 04:58:40;;;;;;;12.05;8.75;;;;;;;4.93;89.78;100663.56;4970175;28;20122;-73
2022/01/29 05:01:06;;;;;;;12.00;7.72;;;;;;;4.96;90.20;100675.75;4967966;28;20026;-72
2022/01/29 05:03:32;;;;;;;11.20;7.82;;;;;;;4.98;89.93;100668.75;4969815;28;20041;-74
2022/01/29 05:05:58;;;;;;;11.93;7.47;;;;;;;5.00;90.03;100672.22;4968956;28;20198;-73
2022/01/29 05:08:23;;;;;;;11.90;7.55;;;;;;;5.00;89.49;100677.44;4969235;28;20453;-73
2022/01/29 05:10:48;;;;;;;10.57;7.00;;;;;;;5.00;89.99;100680.06;4967561;28;20045;-72
2022/01/29 05:13:19;;;;;;;10.25;6.80;;;;;;;5.01;89.97;100676.53;4969008;28;20034;-72
2022/01/29 05:15:59;;;;;;;12.82;7.80;;;;;;;5.03;89.83;100673.94;4968998;28;20389;-73
2022/01/29 05:26:57;;;;;;;10.90;7.40;;;;;;;5.03;90.28;100676.53;4968884;28;20042;-74
2022/01/29 05:29:23;;;;;;;12.88;7.97;;;;;;;5.05;90.24;100675.63;4969404;28;20035;-74
2022/01/29 05:31:51;;;;;;;11.90;7.95;;;;;;;5.06;90.30;100669.50;4969728;28;20118;-74
2022/01/29 05:34:18;;;;;;;11.43;7.05;;;;;;;5.12;89.74;100665.97;4969042;28;20086;-73
2022/01/29 05:36:44;;;;;;;13.05;8.02;;;;;;;5.10;89.77;100658.16;4969642;28;20043;-73
2022/01/29 05:39:09;;;;;;;11.48;7.65;;;;;;;5.14;89.36;100659.84;4969764;28;20084;-73
2022/01/29 05:41:35;;;;;;;12.02;8.00;;;;;;;5.15;89.33;100661.56;4969884;28;20043;-73
2022/01/29 05:44:00;;;;;;;10.98;7.18;;;;;;;5.17;89.25;100656.31;4969080;28;20488;-73
2022/01/29 05:46:25;;;;;;;10.32;6.72;;;;;;;5.20;89.34;100653.66;4969106;28;20035;-74
2022/01/29 05:48:51;;;;;;;10.73;7.20;;;;;;;5.24;88.92;100659.69;4969187;28;20045;-73
2022/01/29 05:51:16;;;;;;;12.32;8.27;;;;;;;5.28;88.61;100664.88;4968847;28;20042;-73
2022/01/29 05:53:41;;;;;;;9.45;6.70;;;;;;;5.28;88.74;100657.03;4969536;28;20097;-74
2022/01/29 05:56:07;;;;;;;11.48;7.18;;;;;;;5.34;88.26;100656.97;4968464;28;20097;-73
2022/01/29 05:58:32;;;;;;;8.63;6.45;;;;;;;5.37;88.15;100658.66;4969577;28;20042;-73
2022/01/29 06:00:58;;;;;;;10.00;7.45;;;;;;;5.38;87.97;100653.41;4969167;28;20044;-73
2022/01/29 06:03:23;;;;;;;10.13;7.53;;;;;;;5.33;87.54;100655.22;4969588;28;20202;-73
2022/01/29 06:05:48;;;;;;;9.85;7.00;;;;;;;5.35;87.94;100663.06;4968303;28;20150;-73
2022/01/29 06:08:14;;;;;;;9.15;7.20;;;;;;;5.34;87.89;100664.81;4969501;28;20523;-73
2022/01/29 06:10:39;;;;;;;9.82;6.68;;;;;;;5.36;88.01;100655.16;4969833;28;20050;-73
2022/01/29 06:13:11;;;;;;;9.77;7.10;;;;;;;5.41;87.84;100662.09;4970630;28;20779;-74
2022/01/29 06:15:42;;;;;;;9.10;6.75;;;;;;;5.41;87.74;100657.72;4968723;28;20031;-73
2022/01/29 06:18:13;;;;;;;10.73;7.60;;;;;;;5.42;87.57;100653.38;4952193;28;20053;-74
2022/01/29 06:20:40;;;;;;;9.85;6.60;;;;;;;5.43;87.32;100642.03;4979193;28;20126;-74
2022/01/29 06:23:06;;;;;;;8.52;6.20;;;;;;;5.41;87.58;100647.25;4977490;28;20408;-73
2022/01/29 06:25:32;;;;;;;8.02;6.13;;;;;;;5.44;87.13;100639.41;4968589;28;20035;-73
2022/01/29 06:27:57;;;;;;;8.57;6.88;;;;;;;5.43;87.48;100642.88;4968838;28;20109;-73
2022/01/29 06:30:22;;;;;;;9.65;5.90;;;;;;;5.46;87.33;100655.91;4969239;28;20039;-73
2022/01/29 06:32:48;;;;;;;10.68;5.15;;;;;;;5.44;86.96;100641.13;4969515;28;20043;-74
2022/01/29 06:35:13;;;;;;;7.35;5.43;;;;;;;5.43;86.98;100631.56;4969101;28;20121;-74
2022/01/29 06:37:39;;;;;;;8.95;5.68;;;;;;;5.40;86.88;100623.78;4952628;28;20118;-74
2022/01/29 06:40:05;;;;;;;7.50;5.75;;;;;;;5.40;87.38;100622.00;4973329;28;20117;-73
2022/01/29 06:42:31;;;;;;;9.10;5.53;;;;;;;5.40;87.05;100627.25;4971435;28;20395;-75
2022/01/29 06:44:56;;;;;;;8.45;6.07;;;;;;;5.42;87.19;100628.09;4971884;28;20042;-73
2022/01/29 06:47:22;;;;;;;8.13;5.53;;;;;;;5.43;87.31;100621.97;4972658;28;20030;-74
2022/01/29 06:49:47;;;;;;;7.43;5.40;;;;;;;5.45;86.93;100625.41;4964896;28;20113;-74
2022/01/29 06:52:12;;;;;;;5.93;4.57;;;;;;;5.47;87.21;100631.50;4972576;28;20031;-72
2022/01/29 06:54:38;;;;;;;7.63;5.78;;;;;;;5.50;87.10;100631.44;4972383;28;20038;-74
2022/01/29 06:57:03;;;;;;;8.32;6.15;;;;;;;5.51;87.03;100634.91;4971213;28;20126;-73
2022/01/29 06:59:29;;;;;;;7.32;5.60;;;;;;;5.51;86.86;100629.69;4970700;28;20046;-72
2022/01/29 07:01:54;;;;;;;7.15;5.38;;;;;;;5.50;87.34;100628.81;4972127;28;20121;-72
2022/01/29 07:04:19;;;;;;;8.32;6.00;;;;;;;5.53;87.22;100633.16;4971235;28;20038;-72
2022/01/29 07:06:45;;;;;;;10.43;6.00;;;;;;;5.51;87.01;100637.53;4972167;28;20042;-72
2022/01/29 07:09:10;;;;;;;8.18;5.53;;;;;;;5.53;86.79;100641.00;4971540;28;20039;-72
2022/01/29 07:11:36;;;;;;;9.57;7.25;;;;;;;5.54;87.16;100632.28;4972079;28;20428;-72
2022/01/29 07:14:03;;;;;;;10.05;6.25;;;;;;;5.53;87.11;100623.53;4970488;28;20387;-71
2022/01/29 07:16:29;;;;;;;7.85;5.93;;;;;;;5.54;87.39;100614.81;4967490;28;20036;-72
2022/01/29 07:18:55;;;;;;;6.93;5.38;;;;;;;5.54;86.86;100613.97;4971774;28;20415;-74
2022/01/29 07:21:20;;;;;;;7.55;5.93;;;;;;;5.57;87.10;100614.78;4972424;28;20031;-72
2022/01/29 07:23:45;;;;;;;7.80;5.35;;;;;;;5.55;86.83;100606.09;4971695;28;20070;-73
2022/01/29 07:26:11;;;;;;;10.68;6.10;;;;;;;5.55;86.93;100603.47;4973163;28;20058;-73
2022/01/29 07:28:36;;;;;;;8.25;4.82;;;;;;;5.56;87.01;100612.16;4972644;28;20447;-73
2022/01/29 07:31:02;;;;;;;7.57;5.78;;;;;;;5.60;87.34;100609.50;4971867;28;20077;-73
2022/01/29 07:33:28;;;;;;;8.07;5.80;;;;;;;5.63;87.20;100610.34;4972181;28;20038;-74
2022/01/29 07:35:55;;;;;;;6.88;5.50;;;;;;;5.65;86.85;100606.81;4970879;28;20030;-73
2022/01/29 07:38:20;;;;;;;7.55;6.22;;;;;;;5.67;86.94;100602.41;4972338;28;20089;-74
2022/01/29 07:40:46;;;;;;;7.35;6.25;;;;;;;5.68;86.92;100608.50;4972120;28;20058;-74
2022/01/29 07:43:11;;;;;;;6.47;5.38;;;;;;;5.68;87.15;100606.75;4971678;28;20046;-74
2022/01/29 07:45:36;;;;;;;6.47;4.90;;;;;;;5.69;86.78;100592.78;4971368;28;20066;-73
2022/01/29 07:48:02;;;;;;;6.82;5.45;;;;;;;5.75;86.85;100591.81;4971546;28;20042;-73
2022/01/29 07:50:27;;;;;;;9.73;5.70;;;;;;;5.75;86.78;100584.84;4952722;28;20038;-73
2022/01/29 07:52:54;;;;;;;9.30;5.55;;;;;;;5.77;86.81;100582.19;4953797;28;20404;-73
2022/01/29 07:55:20;;;;;;;7.63;5.03;;;;;;;5.79;86.89;100585.66;4970579;28;20043;-74
2022/01/29 07:57:46;;;;;;;6.55;5.18;;;;;;;5.82;87.01;100602.16;4970690;28;20057;-73
2022/01/29 08:00:12;;;;;;;6.55;5.00;;;;;;;5.84;86.85;100590.81;4970422;28;20035;-73
2022/01/29 08:02:37;;;;;;;8.32;5.63;;;;;;;5.86;86.78;100589.00;4986243;28;20031;-73
2022/01/29 08:05:03;;;;;;;6.55;5.25;;;;;;;5.88;86.67;100577.66;4970240;28;20129;-73
2022/01/29 08:07:28;;;;;;;7.47;6.32;;;;;;;5.90;86.65;100572.38;4970973;28;20113;-72
2022/01/29 08:09:53;;;;;;;9.48;6.07;;;;;;;5.92;86.80;100584.56;4971249;28;20403;-72
2022/01/29 08:12:19;;;;;;;10.55;6.63;;;;;;;5.94;86.94;100576.72;4975092;28;20037;-72
2022/01/29 08:14:45;;;;;;;7.97;6.13;;;;;;;5.97;86.91;100580.13;4958224;28;20135;-73
2022/01/29 08:17:11;;;;;;;9.30;5.70;;;;;;;6.01;86.42;100573.09;4971060;28;20118;-73
2022/01/29 08:19:37;;;;;;;8.82;6.40;;;;;;;6.05;86.38;100566.91;4953513;28;20055;-73
2022/01/29 08:22:02;;;;;;;7.25;5.95;;;;;;;6.06;86.20;100570.41;4970197;28;20117;-71
2022/01/29 08:24:27;;;;;;;8.38;5.43;;;;;;;6.07;86.09;100569.50;4969576;28;20559;-72
2022/01/29 08:26:53;;;;;;;10.23;6.28;;;;;;;6.11;85.89;100571.19;4969950;28;20426;-73
2022/01/29 08:29:18;;;;;;;7.65;5.47;;;;;;;6.14;86.04;100564.13;4970082;28;20460;-72
2022/01/29 08:31:43;;;;;;;7.68;6.10;;;;;;;6.18;85.72;100554.47;4969778;28;20113;-72
2022/01/29 08:34:09;;;;;;;8.07;5.72;;;;;;;6.23;85.74;100561.34;4970394;28;20031;-72
2022/01/29 08:36:34;;;;;;;8.15;5.80;;;;;;;6.28;85.63;100561.25;4953173;28;20472;-72
2022/01/29 08:38:59;;;;;;;6.93;4.57;;;;;;;6.34;85.38;100570.75;4970594;28;20042;-74
2022/01/29 08:41:25;;;;;;;8.35;4.18;;;;;;;6.36;85.24;100564.59;4969895;28;20061;-72
2022/01/29 08:43:50;;;;;;;7.38;4.95;;;;;;;6.38;85.23;100567.19;4970216;28;20169;-73
2022/01/29 08:46:16;;;;;;;5.78;4.57;;;;;;;6.41;84.75;100567.97;4969395;28;20050;-71
2022/01/29 08:48:41;;;;;;;5.32;4.15;;;;;;;6.46;84.82;100567.88;4970603;28;20062;-71
2022/01/29 08:51:07;;;;;;;5.72;4.40;;;;;;;6.52;84.85;100559.03;4952820;28;20031;-72
2022/01/29 08:53:34;;;;;;;5.72;4.65;;;;;;;6.59;84.67;100563.25;4969969;28;20485;-71
2022/01/29 08:56:00;;;;;;;13.63;5.13;;;;;;;6.64;84.74;100558.78;4969355;28;20035;-71
2022/01/29 08:58:25;;;;;;;6.07;4.07;;;;;;;6.71;84.60;100557.78;4970083;28;20035;-72
2022/01/29 09:00:50;;;;;;;6.20;4.55;;;;;;;6.75;84.07;100553.34;4969985;28;20349;-73
2022/01/29 09:03:17;;;;;;;6.22;4.93;;;;;;;6.75;84.08;100562.06;4969109;28;20046;-71
2022/01/29 09:05:47;;;;;;;5.85;5.10;;;;;;;6.81;83.93;100568.91;4951895;28;20034;-71
2022/01/29 09:08:14;;;;;;;6.13;4.68;;;;;;;6.82;83.95;100560.19;4968888;28;20027;-73
2022/01/29 09:10:40;;;;;;;6.38;3.80;;;;;;;6.86;83.77;100556.56;4969826;28;20042;-69
2022/01/29 09:13:05;;;;;;;5.53;4.53;;;;;;;6.90;83.52;100560.00;4968910;28;20518;-69
2022/01/29 09:15:31;;;;;;;4.97;3.88;;;;;;;6.93;83.81;100542.44;4966951;28;20045;-70
2022/01/29 09:17:56;;;;;;;5.63;4.22;;;;;;;6.97;83.67;100557.22;4970172;28;20049;-69
2022/01/29 09:20:22;;;;;;;5.03;3.60;;;;;;;7.00;83.62;100527.44;4968994;28;20043;-69
2022/01/29 09:22:47;;;;;;;5.40;3.80;;;;;;;7.03;83.24;100533.47;4964404;28;20055;-70
2022/01/29 09:25:13;;;;;;;6.70;5.15;;;;;;;7.07;83.40;100548.25;4939770;28;20109;-71
2022/01/29 09:27:39;;;;;;;5.72;3.85;;;;;;;7.10;83.09;100545.53;4970025;28;20031;-70
2022/01/29 09:30:06;;;;;;;16.48;4.32;;;;;;;7.13;83.12;100552.47;4952661;28;20097;-69
2022/01/29 09:32:31;;;;;;;5.82;3.47;;;;;;;7.12;83.06;100542.91;4969723;28;20468;-69
2022/01/29 09:34:57;;;;;;;4.90;3.65;;;;;;;7.10;83.10;100547.31;4968199;28;20034;-68
2022/01/29 09:37:22;;;;;;;3.47;3.05;;;;;;;7.10;82.92;100547.31;4970013;28;20031;-69
2022/01/29 09:39:48;;;;;;;4.55;3.75;;;;;;;7.09;83.06;100543.84;4966973;28;20555;-70
2022/01/29 09:42:14;;;;;;;6.50;3.05;;;;;;;7.10;83.06;100531.59;4961706;28;20030;-69
2022/01/29 09:56:03;;;;;;;3.60;2.75;;;;;;;7.50;81.05;100534.09;5075606;27;20417;-74
2022/01/29 09:58:28;;;;;;;4.28;3.10;;;;;;;7.41;81.51;100526.50;5069481;28;20052;-76
2022/01/29 10:00:53;;;;;;;3.35;2.83;;;;;;;7.41;82.16;100538.72;5079523;28;20052;-76
2022/01/29 10:03:20;;;;;;;3.90;2.58;;;;;;;7.38;82.08;100547.53;5069580;28;20043;-75
2022/01/29 10:05:50;;;;;;;2.97;2.25;;;;;;;7.34;82.37;100538.03;5075604;28;20032;-75
2022/01/29 10:08:17;;;;;;;3.28;2.40;;;;;;;7.29;82.27;100534.66;5073388;28;20036;-75
2022/01/29 10:10:42;;;;;;;3.88;2.40;;;;;;;7.31;82.70;100535.47;5079900;28;20066;-75
2022/01/29 10:13:23;;;;;;;2.78;1.95;;;;;;;7.31;82.45;100533.72;5079779;28;20088;-75
2022/01/29 10:15:51;;;;;;;3.78;2.50;;;;;;;7.32;82.53;100547.69;5070726;28;20047;-76
2022/01/29 10:18:21;;;;;;;3.10;2.30;;;;;;;7.40;82.60;100532.63;5079217;28;20028;-75
2022/01/29 10:20:46;;;;;;;2.22;1.70;;;;;;;7.42;82.80;100537.84;5077272;28;20068;-74
2022/01/29 10:23:11;;;;;;;1.95;1.63;;;;;;;7.47;82.74;100533.34;5078944;28;20189;-76
2022/01/29 10:25:41;;;;;;;2.60;2.05;;;;;;;7.48;82.46;100535.03;5073791;28;20040;-76
2022/01/29 10:28:12;;;;;;;2.88;1.58;;;;;;;7.49;82.91;100535.03;5054118;28;20043;-75
2022/01/29 10:30:55;;;;;;;2.50;1.95;;;;;;;7.49;82.94;100521.91;5076793;28;20117;-77
2022/01/29 10:33:22;;;;;;;2.50;1.77;;;;;;;7.55;83.31;100510.38;5077468;28;20504;-76
2022/01/29 10:35:53;;;;;;;2.60;2.15;;;;;;;7.64;84.24;100509.31;5079800;28;20047;-76
2022/01/29 10:38:25;;;;;;;3.28;2.65;;;;;;;7.62;84.90;100504.09;5080569;28;20028;-77
2022/01/29 10:41:18;;;;;;;2.65;2.05;;;;;;;7.58;85.28;100507.72;5063946;28;20043;-77
2022/01/29 10:44:19;;;;;;;2.20;1.80;;;;;;;7.55;85.77;100501.66;5070414;28;20058;-75
2022/01/29 10:46:49;;;;;;;2.80;1.92;;;;;;;7.53;86.15;100506.94;5071790;28;20079;-75
2022/01/29 10:49:18;;;;;;;4.88;1.90;;;;;;;7.52;86.15;100495.59;5079765;28;20083;-75
2022/01/29 10:51:55;;;;;;;7.05;3.17;;;;;;;7.53;86.46;100502.56;5077510;28;20052;-76
2022/01/29 10:54:21;;;;;;;2.47;1.95;;;;;;;7.53;86.84;100510.44;5078111;28;20035;-77
2022/01/29 10:56:57;;;;;;;4.43;1.90;;;;;;;7.56;86.22;100506.88;5065946;28;20020;-77
2022/01/29 10:59:22;;;;;;;;;;;;;;;7.59;86.02;100503.31;5066544;28;20087;-76
2022/01/29 11:02:09;;;;;;;1.85;1.65;;;;;;;7.61;86.29;100501.53;5066877;28;20360;-77
2022/01/29 11:04:36;;;;;;;;;;;;;;;7.62;86.30;100497.97;5041680;28;20085;-76
2022/01/29 11:07:03;;;;;;;2.55;1.95;;;;;;;7.62;86.38;100493.59;5065158;28;20035;-73
2022/01/29 11:09:29;;;;;;;3.83;1.92;;;;;;;7.65;86.28;100487.41;5064659;28;20048;-74
2022/01/29 11:12:01;;;;;;;7.55;3.38;;;;;;;7.65;86.64;100469.03;5061018;28;20444;-74
2022/01/29 11:14:28;;;;;;;4.97;2.33;;;;;;;7.69;86.51;100478.56;5062738;28;20036;-73
2022/01/29 11:16:54;;;;;;;2.55;2.03;;;;;;;7.69;86.23;100478.56;5063898;28;20037;-75
2022/01/29 11:19:20;;;;;;;2.42;1.90;;;;;;;7.69;86.73;100476.78;5060116;28;20078;-74
2022/01/29 11:21:50;;;;;;;4.05;2.00;;;;;;;7.72;86.73;100455.69;5064503;28;20076;-74
2022/01/29 11:24:18;;;;;;;2.85;2.20;;;;;;;7.75;86.70;100475.75;5060999;28;20033;-75
2022/01/29 11:26:45;;;;;;;2.67;2.20;;;;;;;7.72;87.26;100445.19;5062196;28;20105;-73
2022/01/29 11:29:24;;;;;;;6.28;3.60;;;;;;;7.78;87.31;100448.56;5053600;28;20523;-77
2022/01/29 11:32:21;;;;;;;2.75;2.15;;;;;;;7.85;86.74;100452.75;5059057;28;20060;-75
2022/01/29 11:35:20;;;;;;;2.53;1.98;;;;;;;8.01;86.42;100445.31;5063374;28;20044;-77
2022/01/29 11:38:02;;;;;;;4.82;3.13;;;;;;;8.11;86.05;100444.16;5044345;28;20036;-75
2022/01/29 11:40:29;;;;;;;2.03;1.75;;;;;;;8.22;85.83;100439.47;5054368;28;20032;-75
2022/01/29 11:43:03;;;;;;;3.17;2.13;;;;;;;8.31;85.25;100426.03;5064857;28;20044;-76
2022/01/29 11:45:49;;;;;;;3.40;1.95;;;;;;;8.32;84.57;100419.91;5064223;28;20364;-76
2022/01/29 11:48:24;;;;;;;;;;;;;;;8.35;84.81;100419.78;5054293;28;20513;-77
2022/01/29 11:50:49;;;;;;;2.60;1.98;;;;;;;8.35;85.04;100421.56;5079487;28;19912;-76